createdAt,value
2024-03-10T00:02:16.558Z,100189.25
2024-03-10T00:04:45.967Z,100196.84
2024-03-10T00:07:12.677Z,100199.09
2024-03-10T00:09:39.449Z,100201.38
2024-03-10T00:12:06.626Z,100201.91
2024-03-10T00:14:34.580Z,100200.75
2024-03-10T00:17:01.388Z,100198.28
2024-03-10T00:19:29.772Z,100195.59
2024-03-10T00:21:56.540Z,100186.13
2024-03-10T00:24:23.326Z,100193.72
2024-03-10T00:26:53.041Z,100190.03
2024-03-10T00:29:20.007Z,100184.34
2024-03-10T00:31:47.013Z,100170.19
2024-03-10T00:34:13.799Z,100166.81
2024-03-10T00:36:40.578Z,100146.31
2024-03-10T00:39:07.370Z,100163.63
2024-03-10T00:41:34.108Z,100162.19
2024-03-10T00:44:00.945Z,100157.47
2024-03-10T00:46:27.714Z,100156.03
2024-03-10T00:48:54.584Z,100150.75
2024-03-10T00:51:21.373Z,100156.34
2024-03-10T00:53:48.195Z,100148.09
2024-03-10T00:56:15.045Z,100138.22
2024-03-10T00:58:45.027Z,100141.41
2024-03-10T01:01:11.885Z,100144.88
2024-03-10T01:03:41.418Z,100153.81
2024-03-10T01:06:08.233Z,100151.50
2024-03-10T01:08:35.076Z,100132.06
2024-03-10T01:11:02.020Z,100128.78
2024-03-10T01:13:28.935Z,100126.50
2024-03-10T01:15:56.696Z,100120.97
2024-03-10T01:18:23.528Z,100118.09
2024-03-10T01:20:50.566Z,100115.69
2024-03-10T01:23:17.476Z,100110.66
2024-03-10T01:25:45.216Z,100109.72
2024-03-10T01:28:11.962Z,100111.75
2024-03-10T01:30:38.903Z,100096.69
2024-03-10T01:33:09.205Z,100086.25
2024-03-10T01:35:38.604Z,100080.97
2024-03-10T01:38:05.444Z,100082.03
2024-03-10T01:40:32.184Z,100076.88
2024-03-10T01:42:58.932Z,100068.41
2024-03-10T01:45:25.896Z,100060.50
2024-03-10T01:47:56.005Z,100052.28
2024-03-10T01:50:23.056Z,100061.03
2024-03-10T01:52:49.921Z,100041.94
2024-03-10T01:55:23.376Z,100038.34
2024-03-10T01:57:54.129Z,100027.03
2024-03-10T02:00:23.545Z,100017.59
2024-03-10T02:02:50.968Z,100009.13
2024-03-10T02:05:18.438Z,100017.41
2024-03-10T02:07:45.390Z,100006.09
2024-03-10T02:10:12.416Z,100007.88
2024-03-10T02:12:42.869Z,100007.78
2024-03-10T02:15:09.811Z,100005.91
2024-03-10T02:17:36.580Z,99999.38
2024-03-10T02:20:04.680Z,99982.59
2024-03-10T02:22:32.082Z,99982.69
2024-03-10T02:25:03.294Z,99974.06
2024-03-10T02:27:30.578Z,99966.94
2024-03-10T02:30:00.296Z,99955.25
2024-03-10T02:32:28.560Z,99951.66
2024-03-10T02:34:58.385Z,99952.16
2024-03-10T02:37:25.231Z,99944.00
2024-03-10T02:39:52.049Z,99945.47
2024-03-10T02:42:18.806Z,99940.13
2024-03-10T02:44:45.581Z,99937.97
2024-03-10T02:47:12.422Z,99934.63
2024-03-10T02:49:43.271Z,99924.69
2024-03-10T02:52:15.863Z,99916.72
2024-03-10T02:54:42.634Z,99909.19
2024-03-10T02:57:11.959Z,99910.84
2024-03-10T02:59:38.750Z,99911.69
2024-03-10T03:02:05.794Z,99901.84
2024-03-10T03:04:32.734Z,99904.63
2024-03-10T03:06:59.586Z,99897.34
2024-03-10T03:09:26.434Z,99884.41
2024-03-10T03:11:53.175Z,99889.59
2024-03-10T03:14:20.030Z,99883.56
2024-03-10T03:16:47.269Z,99885.13
2024-03-10T03:19:14.060Z,99890.44
2024-03-10T03:21:44.404Z,99888.38
2024-03-10T03:24:11.152Z,99892.94
2024-03-10T03:26:38.141Z,99879.69
2024-03-10T03:29:05.051Z,99878.22
2024-03-10T03:31:33.521Z,99885.16
2024-03-10T03:34:00.329Z,99876.38
2024-03-10T03:36:27.402Z,99878.34
2024-03-10T03:38:54.194Z,99875.03
2024-03-10T03:41:23.695Z,99883.25
2024-03-10T03:43:50.718Z,99875.97
2024-03-10T03:46:20.430Z,99875.69
2024-03-10T03:48:47.216Z,99857.72
2024-03-10T03:51:16.524Z,99850.25
2024-03-10T03:53:43.378Z,99836.31
2024-03-10T03:56:12.673Z,99824.31
2024-03-10T03:58:39.512Z,99819.59
2024-03-10T04:01:06.311Z,99816.41
2024-03-10T04:03:33.238Z,99807.59
2024-03-10T04:06:00.419Z,99806.44
2024-03-10T04:08:27.507Z,99807.44
2024-03-10T04:10:54.381Z,99808.91
2024-03-10T04:13:21.288Z,99804.88
2024-03-10T04:15:48.101Z,99796.00
2024-03-10T04:18:14.972Z,99800.44
2024-03-10T04:20:41.972Z,99788.41
2024-03-10T04:23:08.768Z,99792.63
2024-03-10T04:25:36.003Z,99789.34
2024-03-10T04:28:02.765Z,99785.16
2024-03-10T04:30:29.790Z,99775.44
2024-03-10T04:32:59.857Z,99766.91
2024-03-10T04:35:27.245Z,99763.03
2024-03-10T04:37:54.050Z,99752.09
2024-03-10T04:40:20.879Z,99745.63
2024-03-10T04:42:50.673Z,99740.56
2024-03-10T04:45:18.160Z,99741.56
2024-03-10T04:47:45.148Z,99733.97
2024-03-10T04:50:12.214Z,99721.47
2024-03-10T04:52:39.036Z,99713.75
2024-03-10T04:55:06.276Z,99706.72
2024-03-10T04:57:33.755Z,99701.75
2024-03-10T05:00:04.463Z,99686.69
2024-03-10T05:02:31.355Z,99694.25
2024-03-10T05:04:58.230Z,99703.09
2024-03-10T05:07:25.075Z,99697.09
2024-03-10T05:09:51.944Z,99700.94
2024-03-10T05:12:18.831Z,99695.66
2024-03-10T05:14:45.929Z,99694.16
2024-03-10T05:17:12.777Z,99693.50
2024-03-10T05:19:42.524Z,99694.69
2024-03-10T05:22:09.426Z,99691.06
2024-03-10T05:24:36.181Z,99691.75
2024-03-10T05:27:02.986Z,99689.47
2024-03-10T05:29:29.906Z,99672.63
2024-03-10T05:31:59.192Z,99670.84
2024-03-10T05:34:25.993Z,99656.81
2024-03-10T05:36:53.037Z,99659.47
2024-03-10T05:39:22.092Z,99665.72
2024-03-10T05:41:48.940Z,99670.69
2024-03-10T05:44:15.777Z,99672.69
2024-03-10T05:46:42.630Z,99668.34
2024-03-10T05:49:09.413Z,99674.81
2024-03-10T05:51:39.242Z,99671.00
2024-03-10T05:54:14.817Z,99667.06
2024-03-10T05:56:41.603Z,99661.44
2024-03-10T05:59:08.431Z,99652.69
2024-03-10T06:01:37.942Z,99654.50
2024-03-10T06:04:04.877Z,99652.63
2024-03-10T06:06:31.644Z,99633.69
2024-03-10T06:09:02.509Z,99629.69
2024-03-10T06:11:32.181Z,99629.22
2024-03-10T06:13:59.894Z,99610.16
2024-03-10T06:16:29.863Z,99602.69
2024-03-10T06:18:58.478Z,99604.69
2024-03-10T06:21:28.095Z,99581.88
2024-03-10T06:23:54.872Z,99561.25
2024-03-10T06:26:22.552Z,99572.16
2024-03-10T06:28:50.728Z,99591.03
2024-03-10T06:31:18.434Z,99589.03
2024-03-10T06:33:45.931Z,99603.38
2024-03-10T06:36:13.297Z,99603.03
2024-03-10T06:38:41.292Z,99593.66
2024-03-10T06:41:12.079Z,99588.84
2024-03-10T06:43:39.280Z,99585.75
2024-03-10T06:46:08.991Z,99593.25
2024-03-10T06:48:36.929Z,99595.13
2024-03-10T06:51:04.008Z,99593.09
2024-03-10T06:53:30.737Z,99595.53
2024-03-10T06:56:00.513Z,99594.94
2024-03-10T06:58:32.948Z,99603.03
2024-03-10T07:00:59.925Z,99603.03
2024-03-10T07:03:27.074Z,99602.84
2024-03-10T07:05:53.901Z,99588.84
2024-03-10T07:08:20.721Z,99595.97
2024-03-10T07:10:47.541Z,99586.44
2024-03-10T07:13:14.614Z,99570.81
2024-03-10T07:15:41.373Z,99561.28
2024-03-10T07:18:08.662Z,99570.41
2024-03-10T07:20:35.730Z,99571.44
2024-03-10T07:23:05.453Z,99567.97
2024-03-10T07:25:37.068Z,99552.97
2024-03-10T07:28:04.333Z,99554.16
2024-03-10T07:30:31.103Z,99556.59
2024-03-10T07:32:57.822Z,99559.22
2024-03-10T07:35:24.736Z,99565.94
2024-03-10T07:37:52.324Z,99566.94
2024-03-10T07:40:21.496Z,99563.91
2024-03-10T07:42:48.550Z,99569.34
2024-03-10T07:45:16.192Z,99565.66
2024-03-10T07:47:45.010Z,99565.44
2024-03-10T07:50:19.132Z,99557.00
2024-03-10T07:52:47.547Z,99556.09
2024-03-10T07:55:14.556Z,99531.41
2024-03-10T07:57:43.848Z,99517.22
2024-03-10T08:00:11.102Z,99491.47
2024-03-10T08:02:42.082Z,99490.47
2024-03-10T08:05:08.934Z,99484.16
2024-03-10T08:07:35.688Z,99484.81
2024-03-10T08:10:02.517Z,99483.50
2024-03-10T08:12:29.283Z,99489.78
2024-03-10T08:14:56.025Z,99492.63
2024-03-10T08:17:25.613Z,99487.13
2024-03-10T08:19:52.435Z,99493.59
2024-03-10T08:22:19.310Z,99497.91
2024-03-10T08:24:46.082Z,99492.59
2024-03-10T08:27:13.566Z,99496.78
2024-03-10T08:29:43.224Z,99497.81
2024-03-10T08:32:10.054Z,99498.63
2024-03-10T08:34:39.777Z,99490.63
2024-03-10T08:37:06.679Z,99486.50
2024-03-10T08:39:33.510Z,99500.00
2024-03-10T08:42:00.334Z,99495.72
2024-03-10T08:44:27.252Z,99469.34
2024-03-10T08:46:54.196Z,99448.25
2024-03-10T08:49:21.018Z,99432.81
2024-03-10T08:51:47.797Z,99437.53
2024-03-10T08:54:20.404Z,99433.25
2024-03-10T08:56:47.181Z,99442.34
2024-03-10T08:59:14.032Z,99426.22
2024-03-10T09:01:40.868Z,99421.09
2024-03-10T09:04:07.595Z,99396.47
2024-03-10T09:06:37.415Z,99406.31
2024-03-10T09:09:04.529Z,99400.16
2024-03-10T09:11:33.517Z,99388.63
2024-03-10T09:14:00.494Z,99383.72
2024-03-10T09:16:27.916Z,99383.91
2024-03-10T09:18:54.631Z,99372.81
2024-03-10T09:21:24.425Z,99361.44
2024-03-10T09:23:51.178Z,99367.22
2024-03-10T09:26:17.934Z,99359.41
2024-03-10T09:28:45.074Z,99365.19
2024-03-10T09:31:15.455Z,99368.22
2024-03-10T09:33:45.600Z,99383.19
2024-03-10T09:36:13.112Z,99400.19
2024-03-10T09:38:41.995Z,99406.47
2024-03-10T09:41:10.691Z,99399.06
2024-03-10T09:43:39.223Z,99409.53
2024-03-10T09:46:06.426Z,99400.50
2024-03-10T09:48:33.746Z,99399.91
2024-03-10T09:51:01.379Z,99382.09
2024-03-10T09:53:28.181Z,99375.09
2024-03-10T09:55:55.348Z,99384.72
2024-03-10T09:58:40.753Z,99386.19
2024-03-10T10:01:14.693Z,99375.63
2024-03-10T10:03:44.282Z,99358.34
2024-03-10T10:06:14.337Z,99337.25
2024-03-10T10:08:41.152Z,99327.53
2024-03-10T10:11:08.022Z,99324.84
2024-03-10T10:13:34.804Z,99305.81
2024-03-10T10:16:02.069Z,99309.91
2024-03-10T10:18:31.017Z,99291.63
2024-03-10T10:21:02.526Z,99290.16
2024-03-10T10:23:29.601Z,99275.78
2024-03-10T10:26:16.668Z,99256.00
2024-03-10T10:28:43.555Z,99264.38
2024-03-10T10:31:15.087Z,99257.72
2024-03-10T10:33:46.060Z,99251.16
2024-03-10T10:36:13.801Z,99238.38
2024-03-10T10:38:45.675Z,99221.00
2024-03-10T10:41:13.286Z,99241.84
2024-03-10T10:43:43.265Z,99249.22
2024-03-10T10:46:11.673Z,99241.84
2024-03-10T10:48:41.418Z,99246.91
2024-03-10T10:51:08.950Z,99268.19
2024-03-10T10:53:37.568Z,99261.63
2024-03-10T10:56:04.628Z,99250.13
2024-03-10T10:58:33.778Z,99253.81
2024-03-10T11:01:01.143Z,99252.03
2024-03-10T11:03:28.328Z,99245.91
2024-03-10T11:06:04.185Z,99234.81
2024-03-10T11:08:31.991Z,99225.50
2024-03-10T11:10:59.709Z,99221.50
2024-03-10T11:13:26.978Z,99217.47
2024-03-10T11:16:10.581Z,99209.16
2024-03-10T11:18:38.127Z,99201.69
2024-03-10T11:21:07.699Z,99203.97
2024-03-10T11:23:40.168Z,99211.00
2024-03-10T11:26:15.193Z,99207.56
2024-03-10T11:28:51.905Z,99204.66
2024-03-10T11:31:38.685Z,99193.06
2024-03-10T11:34:08.146Z,99191.34
2024-03-10T11:36:40.069Z,99190.88
2024-03-10T11:39:07.879Z,99166.25
2024-03-10T11:41:37.576Z,99150.97
2024-03-10T11:44:05.050Z,99138.53
2024-03-10T11:46:33.203Z,99144.06
2024-03-10T11:49:01.001Z,99158.53
2024-03-10T11:51:33.166Z,99159.69
2024-03-10T11:54:01.348Z,99174.88
2024-03-10T11:56:28.241Z,99169.13
2024-03-10T11:58:55.476Z,99191.91
2024-03-10T12:01:22.299Z,99187.19
2024-03-10T12:03:49.461Z,99187.63
2024-03-10T12:06:17.534Z,99184.66
2024-03-10T12:08:47.296Z,99203.88
2024-03-10T12:11:14.425Z,99206.94
2024-03-10T12:13:49.509Z,99218.28
2024-03-10T12:16:16.463Z,99204.88
2024-03-10T12:18:46.028Z,99214.59
2024-03-10T12:21:17.174Z,99242.75
2024-03-10T12:23:45.118Z,99278.34
2024-03-10T12:26:14.990Z,99268.78
2024-03-10T12:28:44.046Z,99296.19
2024-03-10T12:31:21.649Z,99341.28
2024-03-10T12:33:48.482Z,99355.97
2024-03-10T12:36:15.206Z,99385.94
2024-03-10T12:38:42.521Z,99388.06
2024-03-10T12:41:11.661Z,99398.63
2024-03-10T12:43:38.694Z,99409.50
2024-03-10T12:46:05.865Z,99425.03
2024-03-10T12:48:35.871Z,99415.84
2024-03-10T12:51:04.148Z,99418.06
2024-03-10T12:53:37.776Z,99418.34
2024-03-10T12:56:05.074Z,99425.16
2024-03-10T12:58:31.860Z,99438.16
2024-03-10T13:00:58.631Z,99446.84
2024-03-10T13:03:25.779Z,99463.50
2024-03-10T13:05:55.076Z,99475.91
2024-03-10T13:08:23.169Z,99479.38
2024-03-10T13:10:50.095Z,99476.94
2024-03-10T13:13:16.928Z,99475.09
2024-03-10T13:15:43.779Z,99473.13
2024-03-10T13:18:11.856Z,99469.47
2024-03-10T13:20:47.559Z,99461.84
2024-03-10T13:23:14.996Z,99467.19
2024-03-10T13:25:44.714Z,99467.31
2024-03-10T13:28:11.477Z,99464.47
2024-03-10T13:30:38.283Z,99455.59
2024-03-10T13:33:05.630Z,99450.84
2024-03-10T13:35:32.468Z,99473.00
2024-03-10T13:37:59.299Z,99482.66
2024-03-10T13:40:26.349Z,99476.66
2024-03-10T13:42:55.614Z,99461.22
2024-03-10T13:45:27.920Z,99432.50
2024-03-10T13:48:03.778Z,99434.66
2024-03-10T13:50:30.866Z,99464.41
2024-03-10T13:52:57.665Z,99452.41
2024-03-10T13:55:24.603Z,99460.59
2024-03-10T13:57:53.658Z,99464.78
2024-03-10T14:00:24.255Z,99440.34
2024-03-10T14:03:03.921Z,99417.81
2024-03-10T14:05:31.228Z,99392.41
2024-03-10T14:07:58.222Z,99367.84
2024-03-10T14:10:25.038Z,99337.69
2024-03-10T14:12:51.866Z,99355.28
2024-03-10T14:15:18.737Z,99378.88
2024-03-10T14:17:46.199Z,99383.84
2024-03-10T14:20:16.688Z,99378.28
2024-03-10T14:22:48.159Z,99387.44
2024-03-10T14:25:15.214Z,99380.16
2024-03-10T14:27:51.712Z,99384.69
2024-03-10T14:30:19.441Z,99387.94
2024-03-10T14:32:46.234Z,99383.72
2024-03-10T14:35:15.443Z,99370.19
2024-03-10T14:37:44.134Z,99370.97
2024-03-10T14:40:14.185Z,99377.66
2024-03-10T14:42:41.063Z,99375.44
2024-03-10T14:45:07.990Z,99379.94
2024-03-10T14:47:34.803Z,99380.09
2024-03-10T14:50:05.088Z,99381.50
2024-03-10T14:52:32.029Z,99378.69
2024-03-10T14:54:58.798Z,99383.25
2024-03-10T14:57:25.781Z,99376.22
2024-03-10T14:59:52.534Z,99373.47
2024-03-10T15:02:19.333Z,99367.47
2024-03-10T15:04:46.177Z,99374.47
2024-03-10T15:07:13.066Z,99372.88
2024-03-10T15:09:39.939Z,99380.19
2024-03-10T15:12:07.396Z,99388.00
2024-03-10T15:14:34.340Z,99387.78
2024-03-10T15:17:02.803Z,99395.13
2024-03-10T15:19:29.650Z,99395.97
2024-03-10T15:21:59.158Z,99394.03
2024-03-10T15:24:25.899Z,99399.03
2024-03-10T15:26:52.659Z,99400.81
2024-03-10T15:29:22.609Z,99402.41
2024-03-10T15:31:49.836Z,99398.38
2024-03-10T15:34:16.912Z,99394.75
2024-03-10T15:36:43.631Z,99386.94
2024-03-10T15:39:10.817Z,99396.88
2024-03-10T15:41:37.719Z,99397.13
2024-03-10T15:44:04.609Z,99400.81
2024-03-10T15:46:31.446Z,99396.75
2024-03-10T15:49:00.773Z,99400.16
2024-03-10T15:51:27.734Z,99406.56
2024-03-10T15:53:57.005Z,99416.81
2024-03-10T15:56:23.929Z,99417.16
2024-03-10T15:58:54.593Z,99417.66
2024-03-10T16:01:23.240Z,99424.91
2024-03-10T16:03:58.415Z,99424.75
2024-03-10T16:06:25.462Z,99429.56
2024-03-10T16:08:52.477Z,99426.19
2024-03-10T16:11:22.164Z,99445.56
2024-03-10T16:14:11.264Z,99451.16
2024-03-10T16:16:38.563Z,99447.13
2024-03-10T16:19:05.371Z,99452.75
2024-03-10T16:21:35.434Z,99455.09
2024-03-10T16:24:02.271Z,99452.25
2024-03-10T16:26:29.035Z,99453.47
2024-03-10T16:28:55.788Z,99460.66
2024-03-10T16:31:22.576Z,99460.91
2024-03-10T16:33:49.501Z,99472.31
2024-03-10T16:36:16.353Z,99472.00
2024-03-10T16:38:43.203Z,99476.88
2024-03-10T16:41:10.634Z,99493.41
2024-03-10T16:43:38.055Z,99491.19
2024-03-10T16:46:04.931Z,99496.22
2024-03-10T16:48:31.760Z,99502.22
2024-03-10T16:50:58.559Z,99511.63
2024-03-10T16:53:25.432Z,99505.81
2024-03-10T16:55:52.237Z,99520.72
2024-03-10T16:58:19.142Z,99515.94
2024-03-10T17:00:45.896Z,99520.81
2024-03-10T17:03:12.648Z,99528.38
2024-03-10T17:05:42.814Z,99532.84
2024-03-10T17:08:09.748Z,99545.88
2024-03-10T17:10:45.396Z,99554.63
2024-03-10T17:13:13.967Z,99557.22
2024-03-10T17:15:40.731Z,99572.78
2024-03-10T17:18:07.648Z,99574.63
2024-03-10T17:20:38.099Z,99570.56
2024-03-10T17:23:05.125Z,99570.44
2024-03-10T17:25:35.891Z,99580.88
2024-03-10T17:28:08.152Z,99564.75
2024-03-10T17:30:35.989Z,99570.31
2024-03-10T17:33:04.205Z,99566.91
2024-03-10T17:35:31.083Z,99573.22
2024-03-10T17:37:57.885Z,99580.81
2024-03-10T17:40:24.645Z,99585.44
2024-03-10T17:42:55.250Z,99588.81
2024-03-10T17:45:22.941Z,99592.63
2024-03-10T17:47:49.788Z,99589.34
2024-03-10T17:50:16.646Z,99586.19
2024-03-10T17:52:43.436Z,99582.63
2024-03-10T17:55:10.852Z,99587.53
2024-03-10T17:57:37.771Z,99592.34
2024-03-10T18:00:06.235Z,99600.72
2024-03-10T18:02:34.008Z,99608.69
2024-03-10T18:05:01.007Z,99605.31
2024-03-10T18:07:28.452Z,99614.41
2024-03-10T18:09:55.670Z,99605.84
2024-03-10T18:12:22.518Z,99606.91
2024-03-10T18:14:53.805Z,99614.38
2024-03-10T18:17:20.572Z,99601.69
2024-03-10T18:19:49.578Z,99604.81
2024-03-10T18:22:16.494Z,99618.75
2024-03-10T18:24:46.335Z,99623.34
2024-03-10T18:27:13.486Z,99635.50
2024-03-10T18:29:43.519Z,99631.66
2024-03-10T18:32:10.433Z,99637.44
2024-03-10T18:34:37.333Z,99638.69
2024-03-10T18:37:04.348Z,99641.03
2024-03-10T18:39:31.122Z,99641.69
2024-03-10T18:41:58.123Z,99637.31
2024-03-10T18:44:25.056Z,99645.56
2024-03-10T18:46:51.848Z,99647.81
2024-03-10T18:49:18.702Z,99650.03
2024-03-10T18:51:45.487Z,99656.72
2024-03-10T18:54:12.280Z,99655.66
2024-03-10T18:56:41.928Z,99667.53
2024-03-10T18:59:08.662Z,99667.84
2024-03-10T19:01:35.668Z,99670.97
2024-03-10T19:04:02.486Z,99671.78
2024-03-10T19:06:29.712Z,99681.06
2024-03-10T19:08:56.459Z,99684.03
2024-03-10T19:11:23.276Z,99693.75
2024-03-10T19:13:50.054Z,99695.97
2024-03-10T19:16:16.938Z,99716.50
2024-03-10T19:18:46.093Z,99709.59
2024-03-10T19:21:13.118Z,99713.63
2024-03-10T19:23:40.148Z,99712.03
2024-03-10T19:26:08.477Z,99711.31
2024-03-10T19:28:38.417Z,99710.22
2024-03-10T19:31:05.801Z,99714.47
2024-03-10T19:33:33.322Z,99704.81
2024-03-10T19:36:00.079Z,99706.81
2024-03-10T19:38:27.243Z,99709.84
2024-03-10T19:40:54.198Z,99698.25
2024-03-10T19:43:21.486Z,99699.81
2024-03-10T19:45:48.776Z,99702.78
2024-03-10T19:48:18.443Z,99696.28
2024-03-10T19:50:50.055Z,99699.72
2024-03-10T19:53:17.728Z,99705.22
2024-03-10T19:55:50.275Z,99704.41
2024-03-10T19:58:17.071Z,99716.19
2024-03-10T20:00:43.977Z,99724.28
2024-03-10T20:03:10.816Z,99726.31
2024-03-10T20:05:37.686Z,99724.81
2024-03-10T20:08:04.761Z,99724.06
2024-03-10T20:10:35.386Z,99725.41
2024-03-10T20:13:02.151Z,99718.97
2024-03-10T20:15:29.425Z,99717.00
2024-03-10T20:17:56.545Z,99721.44
2024-03-10T20:20:24.577Z,99720.63
2024-03-10T20:22:55.241Z,99730.97
2024-03-10T20:25:26.782Z,99735.63
2024-03-10T20:27:54.863Z,99742.56
2024-03-10T20:30:21.643Z,99744.97
2024-03-10T20:32:48.790Z,99746.19
2024-03-10T20:35:16.569Z,99741.50
2024-03-10T20:37:43.290Z,99742.34
2024-03-10T20:40:10.896Z,99744.34
2024-03-10T20:42:37.917Z,99745.16
2024-03-10T20:45:04.981Z,99751.44
2024-03-10T20:47:34.184Z,99747.81
2024-03-10T20:50:00.987Z,99749.63
2024-03-10T20:52:27.802Z,99748.22
2024-03-10T20:54:54.557Z,99756.16
2024-03-10T20:57:21.345Z,99762.03
2024-03-10T20:59:48.310Z,99766.28
2024-03-10T21:02:17.663Z,99762.84
2024-03-10T21:04:45.241Z,99766.88
2024-03-10T21:07:14.845Z,99769.34
2024-03-10T21:09:42.054Z,99779.88
2024-03-10T21:12:09.094Z,99780.69
2024-03-10T21:14:35.890Z,99785.94
2024-03-10T21:17:04.112Z,99791.84
2024-03-10T21:19:30.894Z,99789.97
2024-03-10T21:21:57.896Z,99789.78
2024-03-10T21:24:24.837Z,99800.19
2024-03-10T21:26:51.611Z,99792.28
2024-03-10T21:29:18.479Z,99795.50
2024-03-10T21:31:45.318Z,99794.59
2024-03-10T21:34:12.018Z,99798.13
2024-03-10T21:36:38.740Z,99809.06
2024-03-10T21:39:07.807Z,99815.16
2024-03-10T21:41:34.593Z,99812.94
2024-03-10T21:44:01.554Z,99815.38
2024-03-10T21:46:30.806Z,99815.38
2024-03-10T21:48:57.589Z,99815.41
2024-03-10T21:51:26.213Z,99813.56
2024-03-10T21:53:55.707Z,99821.16
2024-03-10T21:56:22.608Z,99819.16
2024-03-10T21:58:49.414Z,99814.78
2024-03-10T22:01:16.295Z,99820.84
2024-03-10T22:03:43.206Z,99825.09
2024-03-10T22:06:11.633Z,99828.75
2024-03-10T22:08:38.393Z,99817.97
2024-03-10T22:11:05.170Z,99828.34
2024-03-10T22:13:31.993Z,99821.97
2024-03-10T22:15:58.905Z,99826.69
2024-03-10T22:18:25.667Z,99826.31
2024-03-10T22:20:52.459Z,99823.84
2024-03-10T22:23:19.489Z,99829.13
2024-03-10T22:25:48.912Z,99827.53
2024-03-10T22:28:15.707Z,99841.78
2024-03-10T22:30:44.977Z,99844.59
2024-03-10T22:33:11.852Z,99856.38
2024-03-10T22:35:38.669Z,99852.75
2024-03-10T22:38:05.452Z,99861.50
2024-03-10T22:40:35.225Z,99863.53
2024-03-10T22:43:02.014Z,99865.56
2024-03-10T22:45:31.986Z,99866.34
2024-03-10T22:48:03.578Z,99856.41
2024-03-10T22:50:30.672Z,99857.44
2024-03-10T22:52:57.622Z,99857.44
2024-03-10T22:55:24.501Z,99866.59
2024-03-10T22:57:54.904Z,99870.44
2024-03-10T23:00:22.173Z,99865.13
2024-03-10T23:02:51.707Z,99871.63
2024-03-10T23:05:19.901Z,99863.69
2024-03-10T23:07:46.797Z,99865.94
2024-03-10T23:10:13.582Z,99864.88
2024-03-10T23:12:44.017Z,99865.91
2024-03-10T23:15:11.127Z,99871.56
2024-03-10T23:17:38.838Z,99872.94
2024-03-10T23:20:07.183Z,99869.75
2024-03-10T23:22:34.435Z,99870.59
2024-03-10T23:25:01.310Z,99871.63
2024-03-10T23:27:30.846Z,99868.00
2024-03-10T23:29:57.932Z,99873.69
2024-03-10T23:32:25.276Z,99875.91
2024-03-10T23:34:53.087Z,99877.13
2024-03-10T23:37:20.294Z,99869.38
2024-03-10T23:39:47.205Z,99875.69
2024-03-10T23:42:14.858Z,99878.56
2024-03-10T23:44:41.790Z,99884.25
2024-03-10T23:47:09.050Z,99878.38
2024-03-10T23:49:36.025Z,99880.16
2024-03-10T23:52:02.805Z,99878.34
2024-03-10T23:54:29.575Z,99878.56
2024-03-10T23:56:59.144Z,99879.94
2024-03-10T23:59:25.925Z,99886.66
